Time;durP1;ratioP1;P1;durP2;ratioP2;P2;SDS_P1;SDS_P2;PMS_P1;PMS_P2;Temp;Humidity;BMP_temperature;BMP_pressure;BME280_temperature;BME280_humidity;BME280_pressure;Samples;Min_cycle;Max_cycle;Signal;HPM_P1;HPM_P2
2022/12/17 13:06:43;;;;;;;;;;;12.20;74.60;;;;;;4958463;29;19951;-86
2022/12/17 13:09:14;;;;;;;;;;;12.00;75.20;;;;;;4958374;28;20031;-86
2022/12/17 13:11:44;;;;;;;;;;;11.90;75.60;;;;;;4958079;29;20000;-86
2022/12/17 13:14:13;;;;;;;;;;;11.80;76.10;;;;;;4958025;28;19945;-86
2022/12/17 13:16:53;;;;;;;;;;;11.70;76.30;;;;;;4957991;28;20455;-86
2022/12/17 13:19:30;;;;;;;;;;;11.70;75.50;;;;;;4957934;28;20451;-86
2022/12/17 13:21:56;;;;;;;;;;;11.60;74.90;;;;;;4983006;28;19976;-89
2022/12/17 13:24:26;;;;;;;;;;;11.50;74.80;;;;;;4998532;28;19941;-89
2022/12/17 13:26:52;;;;;;;;;;;11.40;74.80;;;;;;5016135;28;19944;-89
2022/12/17 13:29:17;;;;;;;;;;;11.40;75.20;;;;;;5016080;28;20395;-89
2022/12/17 13:31:46;;;;;;;;;;;11.30;75.10;;;;;;5016001;28;19943;-89
2022/12/17 13:34:14;;;;;;;;;;;11.40;74.90;;;;;;5015961;28;19942;-89
2022/12/17 13:36:43;;;;;;;;;;;11.40;74.00;;;;;;5015968;28;19992;-89
2022/12/17 13:39:14;;;;;;;;;;;11.40;74.00;;;;;;5015782;28;19966;-89
2022/12/17 13:41:40;;;;;;;;;;;11.40;73.80;;;;;;5014177;28;20312;-89
2022/12/17 13:44:26;;;;;;;;;;;11.40;74.30;;;;;;5014243;28;19947;-89
2022/12/17 13:46:53;;;;;;;;;;;11.40;74.80;;;;;;5007449;28;19986;-89
2022/12/17 13:49:19;;;;;;;;;;;11.30;75.40;;;;;;5013410;28;20418;-89
2022/12/17 13:51:45;;;;;;;;;;;11.40;75.70;;;;;;5015526;28;20383;-88
2022/12/17 13:54:14;;;;;;;;;;;11.40;74.50;;;;;;5015503;28;19944;-88
2022/12/17 13:56:40;;;;;;;;;;;11.40;74.40;;;;;;5015796;28;19941;-89
2022/12/17 13:59:05;;;;;;;;;;;11.40;74.70;;;;;;5015520;28;20319;-89
2022/12/17 14:01:31;;;;;;;;;;;11.40;74.10;;;;;;5015373;28;19965;-89
2022/12/17 14:03:57;;;;;;;;;;;11.40;74.30;;;;;;5015217;28;19954;-88
2022/12/17 14:06:25;;;;;;;;;;;11.30;74.50;;;;;;5015122;28;19949;-88
2022/12/17 14:08:52;;;;;;;;;;;11.30;75.00;;;;;;5015355;28;19944;-89
2022/12/17 14:14:02;;;;;;;;;;;11.20;74.00;;;;;;5015552;28;19977;-88
2022/12/17 14:16:28;;;;;;;;;;;11.20;74.30;;;;;;5015184;28;19939;-88
2022/12/17 14:18:55;;;;;;;;;;;11.20;74.00;;;;;;5015166;28;19976;-89
2022/12/17 14:21:20;;;;;;;;;;;11.20;74.40;;;;;;5014856;28;20319;-88
2022/12/17 14:23:47;;;;;;;;;;;11.30;74.70;;;;;;5014998;28;19944;-88
2022/12/17 14:26:13;;;;;;;;;;;11.40;74.10;;;;;;5014776;28;19954;-88
2022/12/17 14:28:49;;;;;;;;;;;11.40;73.20;;;;;;5015173;28;19945;-88
2022/12/17 14:31:15;;;;;;;;;;;11.40;71.10;;;;;;5015155;28;19946;-89
2022/12/17 14:33:41;;;;;;;;;;;11.40;70.50;;;;;;5014881;28;19946;-89
2022/12/17 14:36:08;;;;;;;;;;;11.70;69.40;;;;;;5014862;28;19938;-89
2022/12/17 14:38:34;;;;;;;;;;;12.00;68.50;;;;;;5014803;28;19943;-89
2022/12/17 14:42:23;;;;;;;;;;;11.90;67.80;;;;;;5014659;28;20327;-89
2022/12/17 14:43:53;;;;;;;;;;;11.90;67.40;;;;;;5014634;28;19952;-89
2022/12/17 14:46:20;;;;;;;;;;;11.60;68.90;;;;;;4997037;28;19945;-88
2022/12/17 14:49:00;;;;;;;;;;;11.40;70.00;;;;;;5014549;28;19992;-89
2022/12/17 14:51:36;;;;;;;;;;;11.20;70.80;;;;;;5014273;28;20367;-88
2022/12/17 14:54:21;;;;;;;;;;;11.10;71.10;;;;;;5013115;28;19962;-89
2022/12/17 14:56:47;;;;;;;;;;;11.00;71.60;;;;;;5013597;28;19947;-89
2022/12/17 14:59:32;;;;;;;;;;;11.40;70.40;;;;;;4996581;28;20051;-89
2022/12/17 15:02:00;;;;;;;;;;;11.80;68.90;;;;;;5014487;28;19960;-89
2022/12/17 15:04:25;;;;;;;;;;;12.50;66.60;;;;;;5014338;28;19936;-89
2022/12/17 15:06:52;;;;;;;;;;;13.00;64.80;;;;;;5014223;28;20416;-89
2022/12/17 15:09:18;;;;;;;;;;;13.30;64.30;;;;;;5014218;28;20285;-89
2022/12/17 15:11:43;;;;;;;;;;;13.60;62.90;;;;;;5014192;28;19949;-89
2022/12/17 15:14:09;;;;;;;;;;;13.70;62.30;;;;;;5014165;28;19941;-89
2022/12/17 15:16:34;;;;;;;;;;;13.40;62.60;;;;;;5014094;28;19939;-89
2022/12/17 15:19:00;;;;;;;;;;;13.20;63.10;;;;;;5013770;28;19985;-89
2022/12/17 15:21:26;;;;;;;;;;;12.70;64.10;;;;;;5013761;28;19989;-89
2022/12/17 15:23:51;;;;;;;;;;;12.30;65.80;;;;;;5013987;28;19943;-89
2022/12/17 15:26:18;;;;;;;;;;;11.90;66.70;;;;;;4996285;28;19944;-89
2022/12/17 15:28:44;;;;;;;;;;;11.60;68.00;;;;;;5013858;28;19992;-89
2022/12/17 15:31:11;;;;;;;;;;;11.30;69.10;;;;;;5013854;28;19971;-89
2022/12/17 15:33:36;;;;;;;;;;;11.10;69.60;;;;;;5013804;28;19988;-89
2022/12/17 15:36:02;;;;;;;;;;;10.90;70.70;;;;;;4996108;28;19973;-88
2022/12/17 15:38:27;;;;;;;;;;;10.80;71.30;;;;;;5013734;28;19948;-88
2022/12/17 15:40:53;;;;;;;;;;;10.60;71.30;;;;;;5013893;28;19962;-89
2022/12/17 15:43:18;;;;;;;;;;;10.40;73.00;;;;;;5013648;28;19937;-88
2022/12/17 15:45:48;;;;;;;;;;;10.10;73.60;;;;;;5013578;28;20041;-88
2022/12/17 15:48:15;;;;;;;;;;;9.80;74.30;;;;;;5013321;28;19982;-88
2022/12/17 15:50:41;;;;;;;;;;;9.60;74.60;;;;;;5013469;28;19947;-88
2022/12/17 15:53:07;;;;;;;;;;;9.50;75.10;;;;;;5013379;28;19957;-89
2022/12/17 15:55:34;;;;;;;;;;;9.30;75.70;;;;;;5013421;28;19939;-88
2022/12/17 15:57:59;;;;;;;;;;;9.10;76.00;;;;;;5013478;28;19988;-89
2022/12/17 16:00:25;;;;;;;;;;;9.00;76.30;;;;;;5013361;28;19938;-89
2022/12/17 16:02:50;;;;;;;;;;;9.00;76.40;;;;;;5013201;28;19992;-89
2022/12/17 16:05:16;;;;;;;;;;;8.90;77.10;;;;;;5011947;28;20017;-88
2022/12/17 16:07:42;;;;;;;;;;;8.80;77.30;;;;;;5012155;28;20008;-88
2022/12/17 16:10:08;;;;;;;;;;;8.70;77.60;;;;;;5012785;28;19940;-89
2022/12/17 16:12:34;;;;;;;;;;;8.60;78.10;;;;;;5013355;28;19983;-88
2022/12/17 16:15:00;;;;;;;;;;;8.50;78.80;;;;;;5013307;28;20005;-88
2022/12/17 16:17:25;;;;;;;;;;;8.40;79.20;;;;;;5013328;28;19962;-89
2022/12/17 16:19:51;;;;;;;;;;;8.40;79.60;;;;;;5013039;28;20293;-88
2022/12/17 16:22:16;;;;;;;;;;;8.30;80.40;;;;;;5013045;28;19975;-89
2022/12/17 16:24:42;;;;;;;;;;;8.30;82.00;;;;;;5013266;28;19941;-89
2022/12/17 16:27:07;;;;;;;;;;;8.30;82.50;;;;;;5013267;28;20001;-89
2022/12/17 16:29:33;;;;;;;;;;;8.30;83.20;;;;;;5013258;28;20370;-89
2022/12/17 16:31:59;;;;;;;;;;;8.30;82.80;;;;;;5013155;28;20379;-88
2022/12/17 16:34:24;;;;;;;;;;;8.20;82.40;;;;;;5013130;28;20344;-88
2022/12/17 16:36:50;;;;;;;;;;;8.30;81.80;;;;;;5013148;28;19939;-88
2022/12/17 16:39:16;;;;;;;;;;;8.30;81.10;;;;;;5013120;28;20337;-89
2022/12/17 16:41:42;;;;;;;;;;;8.40;79.50;;;;;;5013018;28;19962;-89
2022/12/17 16:44:08;;;;;;;;;;;8.40;78.80;;;;;;5013054;28;20028;-88
2022/12/17 16:46:40;;;;;;;;;;;8.50;78.40;;;;;;5013084;28;20424;-88
2022/12/17 16:49:07;;;;;;;;;;;8.60;78.00;;;;;;5012741;28;19945;-89
2022/12/17 16:51:33;;;;;;;;;;;8.60;77.60;;;;;;5012925;28;19942;-88
2022/12/17 16:54:02;;;;;;;;;;;8.70;77.90;;;;;;5012798;28;19957;-89
2022/12/17 16:56:28;;;;;;;;;;;8.70;77.80;;;;;;5012976;28;19949;-88
2022/12/17 16:58:54;;;;;;;;;;;8.70;77.80;;;;;;5012920;28;19942;-88
2022/12/17 17:01:24;;;;;;;;;;;8.70;77.80;;;;;;5012801;28;19961;-88
2022/12/17 17:03:49;;;;;;;;;;;8.70;77.60;;;;;;5012886;28;20025;-88
2022/12/17 17:06:16;;;;;;;;;;;8.70;77.30;;;;;;5012862;28;19970;-88
2022/12/17 17:08:42;;;;;;;;;;;8.80;77.60;;;;;;5012822;28;20025;-89
2022/12/17 17:11:09;;;;;;;;;;;8.80;77.50;;;;;;5012751;28;19989;-88
2022/12/17 17:13:34;;;;;;;;;;;8.80;77.40;;;;;;5012806;28;19984;-88
2022/12/17 17:16:00;;;;;;;;;;;8.80;77.10;;;;;;5012785;28;19941;-88
2022/12/17 17:18:25;;;;;;;;;;;8.80;77.40;;;;;;5012452;28;19939;-89
2022/12/17 17:20:51;;;;;;;;;;;8.80;77.50;;;;;;5015353;28;19972;-89
2022/12/17 17:23:16;;;;;;;;;;;8.80;77.30;;;;;;5016205;28;19944;-88
2022/12/17 17:25:42;;;;;;;;;;;8.80;77.30;;;;;;5016200;28;20345;-88
2022/12/17 17:28:07;;;;;;;;;;;8.80;77.50;;;;;;5016117;28;19961;-89
2022/12/17 17:30:33;;;;;;;;;;;8.80;77.50;;;;;;5016083;28;19938;-89
2022/12/17 17:32:58;;;;;;;;;;;8.80;77.40;;;;;;5016062;28;19939;-88
2022/12/17 17:35:24;;;;;;;;;;;8.80;77.50;;;;;;5016024;28;19954;-89
2022/12/17 17:37:49;;;;;;;;;;;8.80;77.80;;;;;;5015947;28;19943;-89
2022/12/17 17:40:15;;;;;;;;;;;8.80;78.30;;;;;;5015868;28;19950;-88
2022/12/17 17:42:40;;;;;;;;;;;8.80;78.60;;;;;;5015530;28;19968;-88
2022/12/17 17:45:07;;;;;;;;;;;8.80;78.30;;;;;;5015829;28;20027;-88
2022/12/17 17:47:33;;;;;;;;;;;8.80;77.80;;;;;;5015762;28;19941;-89
2022/12/17 17:49:58;;;;;;;;;;;8.80;77.60;;;;;;5015721;28;19962;-88
2022/12/17 17:52:24;;;;;;;;;;;8.90;77.40;;;;;;5015625;28;19964;-88
2022/12/17 17:54:49;;;;;;;;;;;8.80;77.80;;;;;;5015447;28;20309;-89
2022/12/17 17:57:15;;;;;;;;;;;8.90;77.30;;;;;;5015538;28;19936;-88
2022/12/17 17:59:41;;;;;;;;;;;8.90;77.30;;;;;;5015555;28;19944;-89
2022/12/17 18:02:08;;;;;;;;;;;8.90;77.40;;;;;;5015453;28;19968;-89
2022/12/17 18:04:33;;;;;;;;;;;8.80;77.30;;;;;;5015465;28;20396;-88
2022/12/17 18:06:59;;;;;;;;;;;8.80;77.40;;;;;;5015344;28;19946;-89
2022/12/17 18:09:24;;;;;;;;;;;8.90;77.30;;;;;;5015363;28;19950;-88
2022/12/17 18:11:50;;;;;;;;;;;8.90;77.20;;;;;;5015074;28;20379;-88
2022/12/17 18:14:17;;;;;;;;;;;8.90;76.80;;;;;;5015245;28;19995;-88
2022/12/17 18:16:43;;;;;;;;;;;8.90;77.30;;;;;;5015276;28;19991;-88
2022/12/17 18:19:09;;;;;;;;;;;8.90;77.50;;;;;;5015204;28;19948;-88
2022/12/17 18:21:35;;;;;;;;;;;8.80;78.00;;;;;;5029068;23;19977;-88
2022/12/17 18:24:02;;;;;;;;;;;8.70;78.00;;;;;;5036133;28;19945;-88
2022/12/17 18:26:29;;;;;;;;;;;8.70;78.00;;;;;;5034760;28;20312;-88
2022/12/17 18:28:55;;;;;;;;;;;8.70;78.00;;;;;;5034781;28;19966;-88
2022/12/17 18:31:22;;;;;;;;;;;8.60;78.30;;;;;;5033738;28;19941;-88
2022/12/17 18:33:49;;;;;;;;;;;8.50;77.80;;;;;;5034659;28;19939;-88
2022/12/17 18:36:19;;;;;;;;;;;8.50;77.70;;;;;;5034622;28;20035;-88
2022/12/17 18:38:44;;;;;;;;;;;8.50;77.60;;;;;;5034565;28;19944;-88
2022/12/17 18:44:01;;;;;;;;;;;8.40;77.50;;;;;;5025577;28;19944;-88
2022/12/17 18:46:27;;;;;;;;;;;8.20;77.90;;;;;;5054323;28;19937;-88
2022/12/17 18:48:57;;;;;;;;;;;8.10;78.10;;;;;;5054318;28;19940;-88
2022/12/17 18:51:22;;;;;;;;;;;8.00;78.40;;;;;;5054280;28;19939;-88
2022/12/17 18:53:48;;;;;;;;;;;7.90;78.10;;;;;;5054026;28;19963;-88
2022/12/17 18:56:14;;;;;;;;;;;7.90;78.20;;;;;;5054117;28;19942;-88
2022/12/17 18:58:39;;;;;;;;;;;7.80;78.30;;;;;;5054143;28;19991;-88
2022/12/17 19:01:05;;;;;;;;;;;7.80;78.20;;;;;;5054251;28;19974;-88
2022/12/17 19:03:31;;;;;;;;;;;7.70;77.90;;;;;;5054027;28;19937;-88
2022/12/17 19:05:57;;;;;;;;;;;7.70;77.80;;;;;;5053976;28;19943;-88
2022/12/17 19:08:22;;;;;;;;;;;7.60;77.50;;;;;;5047659;28;19943;-88
2022/12/17 19:10:48;;;;;;;;;;;7.50;77.70;;;;;;5033930;28;19949;-88
2022/12/17 19:13:13;;;;;;;;;;;7.50;77.70;;;;;;5033905;28;20410;-88
2022/12/17 19:15:39;;;;;;;;;;;7.40;77.80;;;;;;5033882;28;19943;-88
2022/12/17 19:18:05;;;;;;;;;;;7.30;78.00;;;;;;5033848;28;19951;-88
2022/12/17 19:20:30;;;;;;;;;;;7.20;78.20;;;;;;5033683;28;20000;-88
2022/12/17 19:22:56;;;;;;;;;;;7.10;78.20;;;;;;5033565;28;19974;-88
2022/12/17 19:25:21;;;;;;;;;;;7.10;78.30;;;;;;5033668;28;19950;-85
2022/12/17 19:27:47;;;;;;;;;;;7.10;77.90;;;;;;5033626;28;20035;-85
2022/12/17 19:30:13;;;;;;;;;;;7.10;77.90;;;;;;5033646;28;19940;-85
2022/12/17 19:32:38;;;;;;;;;;;7.10;77.80;;;;;;5033598;28;19944;-85
2022/12/17 19:35:04;;;;;;;;;;;7.10;77.10;;;;;;5033526;28;19941;-85
2022/12/17 19:37:29;;;;;;;;;;;7.10;76.90;;;;;;5033538;28;19944;-85
2022/12/17 19:39:55;;;;;;;;;;;7.10;76.80;;;;;;5050982;28;20437;-85
2022/12/17 19:42:23;;;;;;;;;;;7.00;76.90;;;;;;5053100;28;19983;-85
2022/12/17 19:44:49;;;;;;;;;;;7.00;76.80;;;;;;5053284;28;19940;-85
2022/12/17 19:47:15;;;;;;;;;;;6.90;76.70;;;;;;5053285;28;19992;-85
2022/12/17 19:49:40;;;;;;;;;;;6.90;76.80;;;;;;5053255;28;19984;-85
2022/12/17 19:52:06;;;;;;;;;;;6.90;76.90;;;;;;5053152;28;19958;-85
2022/12/17 19:54:31;;;;;;;;;;;6.80;76.70;;;;;;5053064;28;19937;-85
2022/12/17 19:56:57;;;;;;;;;;;6.80;76.90;;;;;;5053164;28;19952;-85
2022/12/17 19:59:23;;;;;;;;;;;6.80;76.80;;;;;;5053143;28;19978;-85
2022/12/17 20:01:48;;;;;;;;;;;6.70;76.90;;;;;;5052971;28;19966;-85
2022/12/17 20:04:15;;;;;;;;;;;6.70;76.60;;;;;;5053068;28;20396;-85
2022/12/17 20:06:41;;;;;;;;;;;6.70;76.70;;;;;;5053046;28;20405;-85
2022/12/17 20:09:07;;;;;;;;;;;6.60;76.50;;;;;;5041323;28;19946;-88
2022/12/17 20:11:33;;;;;;;;;;;6.60;76.60;;;;;;5033088;28;20379;-88
2022/12/17 20:14:00;;;;;;;;;;;6.50;76.80;;;;;;5033058;28;19947;-85
2022/12/17 20:16:26;;;;;;;;;;;6.50;76.70;;;;;;5046048;28;20400;-85
2022/12/17 20:18:52;;;;;;;;;;;6.50;76.80;;;;;;5052934;28;20440;-85
2022/12/17 20:21:17;;;;;;;;;;;6.50;76.80;;;;;;5052694;28;20064;-85
2022/12/17 20:23:46;;;;;;;;;;;6.40;76.50;;;;;;5052940;28;19937;-85
2022/12/17 20:26:12;;;;;;;;;;;6.50;76.70;;;;;;5052902;28;19939;-84
2022/12/17 20:28:38;;;;;;;;;;;6.40;76.70;;;;;;5052846;28;19948;-85
2022/12/17 20:31:04;;;;;;;;;;;6.40;76.70;;;;;;5052802;28;19949;-85
2022/12/17 20:33:29;;;;;;;;;;;6.40;76.80;;;;;;5036703;28;20013;-85
2022/12/17 20:36:01;;;;;;;;;;;6.40;76.60;;;;;;5032885;28;20407;-85
2022/12/17 20:38:26;;;;;;;;;;;6.40;76.50;;;;;;5032835;28;20315;-85
2022/12/17 20:40:52;;;;;;;;;;;6.30;76.70;;;;;;5032947;28;19964;-85
2022/12/17 20:43:17;;;;;;;;;;;6.30;76.90;;;;;;5015155;28;20428;-85
2022/12/17 20:45:47;;;;;;;;;;;6.20;76.80;;;;;;5032812;28;20316;-85
2022/12/17 20:48:12;;;;;;;;;;;6.20;76.80;;;;;;5032756;28;20312;-85
2022/12/17 20:50:39;;;;;;;;;;;6.20;77.00;;;;;;5032344;28;19952;-85
2022/12/17 20:53:05;;;;;;;;;;;6.20;76.90;;;;;;5032504;28;20375;-88
2022/12/17 20:55:31;;;;;;;;;;;6.10;77.30;;;;;;5035814;28;19944;-85
2022/12/17 20:57:56;;;;;;;;;;;6.10;77.10;;;;;;5036470;28;19938;-85
2022/12/17 21:00:22;;;;;;;;;;;6.00;77.60;;;;;;5036451;28;19993;-85
2022/12/17 21:02:47;;;;;;;;;;;6.00;77.20;;;;;;5036502;28;19962;-85
2022/12/17 21:05:13;;;;;;;;;;;6.00;77.10;;;;;;5036304;28;19946;-85
2022/12/17 21:07:38;;;;;;;;;;;6.10;77.30;;;;;;5036310;28;20344;-85
2022/12/17 21:10:04;;;;;;;;;;;6.00;77.40;;;;;;5036278;28;19939;-84
2022/12/17 21:13:27;;;;;;;;;;;6.00;77.30;;;;;;5018453;28;19989;-85
2022/12/17 21:15:15;;;;;;;;;;;6.10;77.30;;;;;;5036017;28;19944;-85
2022/12/17 21:17:40;;;;;;;;;;;6.10;77.20;;;;;;5036105;28;20023;-85
2022/12/17 21:20:06;;;;;;;;;;;6.20;77.20;;;;;;5036094;28;19941;-85
2022/12/17 21:22:32;;;;;;;;;;;6.30;77.00;;;;;;5035807;28;19982;-88
2022/12/17 21:24:57;;;;;;;;;;;6.20;77.00;;;;;;5035980;28;20466;-85
2022/12/17 21:27:23;;;;;;;;;;;6.30;77.10;;;;;;5036196;28;20389;-85
2022/12/17 21:29:48;;;;;;;;;;;6.30;77.00;;;;;;5035922;28;20402;-85
2022/12/17 21:32:14;;;;;;;;;;;6.40;77.00;;;;;;5042535;28;19963;-86
2022/12/17 21:34:39;;;;;;;;;;;6.40;77.10;;;;;;5055411;28;19953;-87
2022/12/17 21:37:05;;;;;;;;;;;6.40;76.60;;;;;;5055636;28;19939;-88
2022/12/17 21:39:31;;;;;;;;;;;6.40;76.30;;;;;;5055635;28;19967;-87
2022/12/17 21:44:40;;;;;;;;;;;6.50;76.70;;;;;;5055574;28;19944;-85
2022/12/17 21:47:06;;;;;;;;;;;6.50;76.40;;;;;;5055512;28;19958;-85
2022/12/17 21:49:31;;;;;;;;;;;6.50;76.40;;;;;;5055472;28;19945;-85
2022/12/17 21:51:58;;;;;;;;;;;6.60;76.40;;;;;;5055358;28;19939;-85
2022/12/17 21:54:24;;;;;;;;;;;6.60;76.20;;;;;;5055242;28;19939;-85
2022/12/17 21:56:49;;;;;;;;;;;6.60;75.90;;;;;;5055309;28;19988;-84
2022/12/17 21:59:15;;;;;;;;;;;6.70;75.50;;;;;;5055337;28;19995;-85
2022/12/17 22:01:41;;;;;;;;;;;6.60;75.60;;;;;;5053042;28;20411;-85
2022/12/17 22:04:06;;;;;;;;;;;6.60;75.80;;;;;;5035274;28;19938;-84
2022/12/17 22:06:32;;;;;;;;;;;6.60;76.00;;;;;;5035211;28;20426;-85
2022/12/17 22:08:58;;;;;;;;;;;6.80;75.90;;;;;;5035233;28;19944;-84
2022/12/17 22:11:25;;;;;;;;;;;6.80;75.60;;;;;;5035186;28;20016;-84
2022/12/17 22:14:08;;;;;;;;;;;6.80;75.30;;;;;;5035051;28;20324;-85
2022/12/17 22:16:37;;;;;;;;;;;6.80;75.30;;;;;;5035014;28;20387;-85
2022/12/17 22:19:03;;;;;;;;;;;6.80;75.00;;;;;;5035025;28;19939;-85
2022/12/17 22:21:31;;;;;;;;;;;6.70;74.60;;;;;;5034815;28;19975;-85
2022/12/17 22:23:57;;;;;;;;;;;6.70;74.30;;;;;;5034915;28;19935;-85
2022/12/17 22:26:22;;;;;;;;;;;6.70;74.40;;;;;;5017171;28;19942;-85
2022/12/17 22:28:48;;;;;;;;;;;6.70;74.30;;;;;;5034822;28;19935;-85
2022/12/17 22:34:00;;;;;;;;;;;6.70;74.00;;;;;;5054951;28;20027;-85
2022/12/17 22:36:28;;;;;;;;;;;6.50;74.30;;;;;;5054569;28;19947;-85
2022/12/17 22:38:54;;;;;;;;;;;6.40;74.80;;;;;;5054582;28;19966;-85
2022/12/17 22:44:04;;;;;;;;;;;6.40;74.90;;;;;;5054458;28;20518;-85
2022/12/17 22:46:30;;;;;;;;;;;6.40;74.80;;;;;;5054361;28;20031;-85
2022/12/17 22:48:56;;;;;;;;;;;6.40;74.80;;;;;;5054306;28;20316;-85
2022/12/17 22:51:22;;;;;;;;;;;6.40;74.70;;;;;;5054307;28;19936;-85
2022/12/17 22:53:48;;;;;;;;;;;6.30;74.50;;;;;;5053926;28;20323;-85
2022/12/17 22:56:13;;;;;;;;;;;6.20;74.70;;;;;;5054446;28;19942;-85
2022/12/17 22:58:39;;;;;;;;;;;6.20;75.00;;;;;;5054158;28;19937;-85
2022/12/17 23:01:05;;;;;;;;;;;6.20;75.10;;;;;;5053999;28;20377;-85
2022/12/17 23:03:30;;;;;;;;;;;6.10;75.40;;;;;;5034723;28;20485;-85
2022/12/17 23:06:09;;;;;;;;;;;6.10;75.30;;;;;;5033822;28;20348;-85
2022/12/17 23:08:35;;;;;;;;;;;6.10;75.20;;;;;;5034060;28;19972;-85
2022/12/17 23:11:05;;;;;;;;;;;6.10;75.30;;;;;;5039868;28;19975;-85
2022/12/17 23:13:30;;;;;;;;;;;6.00;75.40;;;;;;5053906;28;19952;-85
2022/12/17 23:15:56;;;;;;;;;;;6.00;75.50;;;;;;5053834;28;20452;-85
2022/12/17 23:18:21;;;;;;;;;;;6.00;75.70;;;;;;5053309;28;19939;-85
2022/12/17 23:20:47;;;;;;;;;;;6.00;75.80;;;;;;5035522;28;19943;-85
2022/12/17 23:23:12;;;;;;;;;;;6.00;75.80;;;;;;5053731;28;19951;-85
2022/12/17 23:25:38;;;;;;;;;;;6.00;76.00;;;;;;5053668;28;19948;-85
2022/12/17 23:28:03;;;;;;;;;;;6.00;75.50;;;;;;5053634;28;19982;-85
2022/12/17 23:30:29;;;;;;;;;;;6.10;75.60;;;;;;5053547;28;19943;-85
2022/12/17 23:32:54;;;;;;;;;;;6.00;75.60;;;;;;5039295;28;19943;-85
2022/12/17 23:35:20;;;;;;;;;;;6.00;75.50;;;;;;5033608;28;19950;-85
2022/12/17 23:37:45;;;;;;;;;;;6.00;75.30;;;;;;5033570;28;19953;-85
2022/12/17 23:40:11;;;;;;;;;;;6.00;75.30;;;;;;5033517;28;20033;-85
2022/12/17 23:42:37;;;;;;;;;;;6.00;75.60;;;;;;5033453;28;20016;-85
2022/12/17 23:45:04;;;;;;;;;;;6.00;75.40;;;;;;5033487;28;20401;-85
2022/12/17 23:47:30;;;;;;;;;;;5.90;75.60;;;;;;5033382;28;19943;-85
2022/12/17 23:49:56;;;;;;;;;;;5.90;75.50;;;;;;5033392;28;19950;-85
2022/12/17 23:52:21;;;;;;;;;;;5.90;75.20;;;;;;5033320;28;19966;-85
2022/12/17 23:54:47;;;;;;;;;;;5.90;75.40;;;;;;5033249;28;19966;-85
2022/12/17 23:57:12;;;;;;;;;;;5.90;75.00;;;;;;5033336;28;19939;-85
2022/12/17 23:59:38;;;;;;;;;;;5.80;75.00;;;;;;5033260;28;19992;-85
